createdAt,value
2019-01-10T00:00:58.911Z,7.06
2019-01-10T00:03:28.840Z,7.00
2019-01-10T00:05:58.878Z,6.96
2019-01-10T00:08:28.745Z,6.89
2019-01-10T00:10:58.597Z,6.89
2019-01-10T00:13:28.279Z,6.85
2019-01-10T00:15:58.039Z,6.76
2019-01-10T00:18:27.890Z,6.73
2019-01-10T00:20:57.645Z,6.66
2019-01-10T00:23:27.558Z,6.56
2019-01-10T00:25:57.472Z,6.46
2019-01-10T00:28:27.567Z,6.42
2019-01-10T00:30:57.464Z,6.37
2019-01-10T00:33:27.428Z,6.30
2019-01-10T00:35:57.306Z,6.27
2019-01-10T00:38:27.231Z,6.27
2019-01-10T00:40:57.245Z,6.23
2019-01-10T00:43:27.191Z,6.23
2019-01-10T00:45:59.485Z,6.19
2019-01-10T00:48:29.327Z,6.15
2019-01-10T00:50:59.146Z,6.17
2019-01-10T00:53:29.058Z,6.15
2019-01-10T00:55:59.020Z,6.12
2019-01-10T00:58:28.723Z,6.09
2019-01-10T01:00:58.586Z,6.09
2019-01-10T01:03:28.644Z,6.05
2019-01-10T01:05:58.574Z,6.02
2019-01-10T01:08:28.423Z,5.97
2019-01-10T01:10:58.350Z,5.90
2019-01-10T01:13:28.189Z,5.75
2019-01-10T01:15:58.283Z,5.63
2019-01-10T01:18:28.032Z,5.59
2019-01-10T01:20:57.966Z,5.62
2019-01-10T01:23:27.739Z,5.55
2019-01-10T01:25:57.590Z,5.55
2019-01-10T01:28:27.594Z,5.49
2019-01-10T01:30:57.431Z,5.44
2019-01-10T01:33:27.354Z,5.41
2019-01-10T01:35:57.360Z,5.37
2019-01-10T01:38:27.195Z,5.28
2019-01-10T01:40:57.149Z,5.24
2019-01-10T01:43:27.165Z,5.24
2019-01-10T01:45:56.977Z,5.24
2019-01-10T01:48:27.020Z,5.23
2019-01-10T01:50:56.875Z,5.16
2019-01-10T01:53:26.478Z,5.08
2019-01-10T01:55:56.643Z,5.03
2019-01-10T01:58:26.529Z,5.04
2019-01-10T02:00:56.336Z,5.06
2019-01-10T02:03:26.322Z,5.08
2019-01-10T02:05:56.069Z,5.04
2019-01-10T02:08:25.563Z,4.96
2019-01-10T02:10:55.471Z,4.90
2019-01-10T02:13:25.312Z,4.80
2019-01-10T02:15:54.362Z,4.71
2019-01-10T02:18:24.199Z,4.67
2019-01-10T02:20:53.982Z,4.69
2019-01-10T02:23:23.905Z,4.69
2019-01-10T02:25:53.766Z,4.73
2019-01-10T02:28:23.760Z,4.76
2019-01-10T02:30:53.557Z,4.75
2019-01-10T02:33:23.297Z,4.74
2019-01-10T02:35:52.869Z,4.71
2019-01-10T02:38:22.681Z,4.65
2019-01-10T02:40:52.746Z,4.58
2019-01-10T02:43:26.478Z,4.53
2019-01-10T02:45:53.979Z,4.51
2019-01-10T02:48:24.059Z,4.50
2019-01-10T02:50:53.037Z,4.49
2019-01-10T02:53:22.808Z,4.43
2019-01-10T02:55:52.788Z,4.36
2019-01-10T02:58:22.753Z,4.33
2019-01-10T03:00:52.676Z,4.34
2019-01-10T03:03:22.593Z,4.37
2019-01-10T03:05:52.486Z,4.40
2019-01-10T03:08:22.423Z,4.39
2019-01-10T03:10:52.441Z,4.33
2019-01-10T03:13:22.326Z,4.33
2019-01-10T03:15:52.259Z,4.30
2019-01-10T03:18:22.112Z,4.25
2019-01-10T03:20:52.685Z,4.19
2019-01-10T03:23:22.368Z,4.16
2019-01-10T03:25:52.132Z,4.17
2019-01-10T03:28:21.910Z,4.20
2019-01-10T03:30:51.738Z,4.21
2019-01-10T03:33:21.641Z,4.14
2019-01-10T03:35:51.458Z,4.04
2019-01-10T03:38:21.262Z,4.01
2019-01-10T03:40:50.972Z,4.03
2019-01-10T03:43:20.923Z,4.04
2019-01-10T03:45:50.842Z,4.08
2019-01-10T03:48:20.757Z,4.10
2019-01-10T03:50:50.467Z,4.09
2019-01-10T03:53:19.823Z,4.03
2019-01-10T03:55:49.837Z,4.02
2019-01-10T03:58:19.641Z,4.01
2019-01-10T04:00:49.791Z,3.99
2019-01-10T04:03:19.804Z,3.95
2019-01-10T04:05:49.582Z,3.85
2019-01-10T04:08:19.451Z,3.80
2019-01-10T04:10:49.536Z,3.80
2019-01-10T04:13:19.287Z,3.82
2019-01-10T04:15:49.296Z,3.81
2019-01-10T04:18:19.192Z,3.82
2019-01-10T04:20:48.162Z,3.81
2019-01-10T04:23:17.012Z,3.76
2019-01-10T04:25:46.371Z,3.76
2019-01-10T04:28:16.084Z,3.76
2019-01-10T04:30:46.335Z,3.75
2019-01-10T04:33:17.462Z,3.74
2019-01-10T04:35:46.923Z,3.73
2019-01-10T04:38:16.189Z,3.70
2019-01-10T04:40:45.652Z,3.63
2019-01-10T04:43:15.458Z,3.60
2019-01-10T04:45:45.279Z,3.59
2019-01-10T04:48:15.067Z,3.57
2019-01-10T04:50:45.000Z,3.52
2019-01-10T04:53:14.648Z,3.53
2019-01-10T04:55:44.567Z,3.51
2019-01-10T04:58:14.444Z,3.48
2019-01-10T05:00:44.400Z,3.45
2019-01-10T05:03:14.699Z,3.41
2019-01-10T05:05:44.607Z,3.43
2019-01-10T05:08:14.381Z,3.48
2019-01-10T05:10:44.440Z,3.52
2019-01-10T05:13:14.101Z,3.50
2019-01-10T05:15:43.843Z,3.44
2019-01-10T05:18:13.979Z,3.42
2019-01-10T05:20:43.720Z,3.40
2019-01-10T05:23:13.605Z,3.36
2019-01-10T05:25:43.371Z,3.34
2019-01-10T05:28:13.169Z,3.35
2019-01-10T05:30:43.046Z,3.37
2019-01-10T05:33:13.071Z,3.31
2019-01-10T05:35:42.936Z,3.27
2019-01-10T05:38:12.762Z,3.26
2019-01-10T05:40:42.632Z,3.24
2019-01-10T05:43:12.567Z,3.25
2019-01-10T05:45:42.519Z,3.25
2019-01-10T05:48:12.419Z,3.23
2019-01-10T05:50:43.868Z,3.18
2019-01-10T05:53:13.658Z,3.14
2019-01-10T05:55:43.618Z,3.14
2019-01-10T05:58:13.509Z,3.14
2019-01-10T06:00:43.540Z,3.14
2019-01-10T06:03:13.130Z,3.07
2019-01-10T06:05:43.388Z,3.01
2019-01-10T06:08:13.280Z,2.97
2019-01-10T06:10:45.746Z,2.98
2019-01-10T06:13:15.697Z,2.99
2019-01-10T06:15:45.692Z,2.96
2019-01-10T06:18:15.533Z,2.93
2019-01-10T06:20:45.622Z,2.93
2019-01-10T06:23:15.390Z,2.94
2019-01-10T06:25:45.546Z,2.94
2019-01-10T06:28:15.404Z,2.94
2019-01-10T06:30:45.216Z,2.96
2019-01-10T06:33:15.199Z,2.95
2019-01-10T06:35:45.079Z,2.92
2019-01-10T06:38:14.904Z,2.87
2019-01-10T06:40:44.893Z,2.86
2019-01-10T06:43:14.769Z,2.85
2019-01-10T06:45:44.643Z,2.87
2019-01-10T06:48:14.811Z,2.88
2019-01-10T06:50:44.746Z,2.85
2019-01-10T06:53:14.689Z,2.83
2019-01-10T06:55:44.889Z,2.83
2019-01-10T06:58:14.714Z,2.85
2019-01-10T07:00:44.546Z,2.85
2019-01-10T07:03:14.515Z,2.86
2019-01-10T07:05:44.484Z,2.86
2019-01-10T07:08:14.767Z,2.84
2019-01-10T07:10:44.756Z,2.83
2019-01-10T07:13:14.415Z,2.83
2019-01-10T07:15:44.172Z,2.77
2019-01-10T07:18:14.144Z,2.76
2019-01-10T07:20:43.761Z,2.73
2019-01-10T07:23:13.297Z,2.72
2019-01-10T07:25:43.092Z,2.72
2019-01-10T07:28:19.104Z,2.74
2019-01-10T07:30:49.001Z,2.72
2019-01-10T07:33:18.737Z,2.69
2019-01-10T07:35:53.731Z,2.67
2019-01-10T07:38:23.475Z,2.64
2019-01-10T07:40:53.386Z,2.67
2019-01-10T07:43:24.119Z,2.70
2019-01-10T07:45:53.944Z,2.71
2019-01-10T07:48:23.591Z,2.69
2019-01-10T07:50:53.542Z,2.67
2019-01-10T07:53:23.508Z,2.63
2019-01-10T07:55:53.724Z,2.62
2019-01-10T07:58:23.785Z,2.62
2019-01-10T08:00:54.033Z,2.64
2019-01-10T08:03:24.097Z,2.65
2019-01-10T08:05:53.955Z,2.65
2019-01-10T08:08:23.648Z,2.65
2019-01-10T08:10:53.501Z,2.69
2019-01-10T08:13:23.312Z,2.72
2019-01-10T08:15:53.115Z,2.72
2019-01-10T08:18:22.852Z,2.72
2019-01-10T08:20:52.426Z,2.73
2019-01-10T08:23:22.146Z,2.76
2019-01-10T08:25:51.753Z,2.77
2019-01-10T08:28:21.569Z,2.83
2019-01-10T08:30:51.311Z,2.89
2019-01-10T08:33:21.017Z,2.95
2019-01-10T08:35:49.847Z,3.00
2019-01-10T08:38:19.125Z,3.05
2019-01-10T08:40:49.237Z,3.14
2019-01-10T08:43:18.328Z,3.20
2019-01-10T08:45:47.379Z,3.28
2019-01-10T08:48:16.550Z,3.36
2019-01-10T08:50:45.694Z,3.44
2019-01-10T08:53:15.705Z,3.53
2019-01-10T08:55:44.952Z,3.63
2019-01-10T08:58:13.912Z,3.72
2019-01-10T09:00:44.712Z,3.84
2019-01-10T09:03:14.759Z,3.97
2019-01-10T09:05:43.740Z,4.09
2019-01-10T09:08:12.704Z,4.21
2019-01-10T09:10:42.396Z,4.32
2019-01-10T09:13:11.973Z,4.41
2019-01-10T09:15:40.925Z,4.51
2019-01-10T09:18:09.867Z,4.62
2019-01-10T09:20:38.983Z,4.73
2019-01-10T09:23:08.183Z,4.84
2019-01-10T09:25:37.155Z,4.99
2019-01-10T09:28:06.543Z,5.15
2019-01-10T09:30:38.651Z,5.34
2019-01-10T09:33:08.433Z,5.57
2019-01-10T09:35:37.516Z,5.81
2019-01-10T09:38:07.126Z,6.07
2019-01-10T09:40:37.426Z,6.28
2019-01-10T09:43:06.654Z,6.46
2019-01-10T09:45:43.042Z,6.66
2019-01-10T09:48:06.562Z,6.87
2019-01-10T09:50:35.724Z,7.09
2019-01-10T09:53:05.283Z,7.36
2019-01-10T09:55:34.240Z,7.68
2019-01-10T09:58:03.275Z,7.99
2019-01-10T10:00:32.543Z,8.27
2019-01-10T10:03:02.382Z,8.57
2019-01-10T10:05:31.572Z,8.70
2019-01-10T10:08:00.753Z,9.12
2019-01-10T10:10:30.133Z,9.41
2019-01-10T10:12:59.276Z,9.72
2019-01-10T10:15:28.786Z,9.99
2019-01-10T10:17:58.160Z,10.26
2019-01-10T10:20:27.420Z,10.55
2019-01-10T10:22:57.203Z,10.82
2019-01-10T10:25:27.231Z,11.06
2019-01-10T10:27:56.485Z,11.23
2019-01-10T10:30:26.108Z,11.41
2019-01-10T10:32:55.564Z,11.58
2019-01-10T10:35:25.198Z,11.75
2019-01-10T10:37:54.740Z,11.92
2019-01-10T10:40:24.652Z,12.06
2019-01-10T10:42:54.419Z,12.21
2019-01-10T10:45:24.273Z,12.33
2019-01-10T10:47:54.246Z,12.46
2019-01-10T10:50:26.306Z,12.61
2019-01-10T10:52:56.000Z,12.80
2019-01-10T10:55:25.980Z,12.94
2019-01-10T10:57:55.822Z,13.11
2019-01-10T11:00:29.027Z,13.30
2019-01-10T11:02:58.934Z,13.39
2019-01-10T11:05:28.418Z,13.49
2019-01-10T11:07:58.102Z,13.61
2019-01-10T11:10:27.810Z,13.74
2019-01-10T11:12:57.643Z,13.85
2019-01-10T11:15:27.980Z,14.02
2019-01-10T11:17:57.488Z,14.24
2019-01-10T11:20:27.261Z,14.43
2019-01-10T11:22:57.259Z,14.57
2019-01-10T11:25:27.111Z,14.71
2019-01-10T11:27:56.988Z,14.88
2019-01-10T11:30:26.899Z,15.02
2019-01-10T11:32:56.977Z,15.19
2019-01-10T11:35:26.872Z,15.35
2019-01-10T11:37:56.977Z,15.49
2019-01-10T11:40:26.675Z,15.64
2019-01-10T11:42:56.558Z,15.79
2019-01-10T11:45:26.530Z,15.92
2019-01-10T11:47:56.410Z,16.00
2019-01-10T11:50:26.316Z,16.07
2019-01-10T11:52:56.254Z,16.15
2019-01-10T11:55:26.044Z,16.24
2019-01-10T11:57:55.845Z,16.38
2019-01-10T12:00:27.983Z,16.53
2019-01-10T12:02:57.742Z,16.69
2019-01-10T12:05:27.708Z,16.79
2019-01-10T12:07:57.675Z,16.88
2019-01-10T12:10:27.457Z,16.94
2019-01-10T12:12:57.255Z,16.98
2019-01-10T12:15:27.221Z,17.05
2019-01-10T12:17:57.615Z,17.15
2019-01-10T12:20:27.345Z,17.21
2019-01-10T12:22:57.368Z,17.32
2019-01-10T12:25:27.295Z,17.44
2019-01-10T12:27:57.398Z,17.50
2019-01-10T12:30:27.424Z,17.50
2019-01-10T12:32:57.421Z,17.61
2019-01-10T12:35:27.391Z,17.74
2019-01-10T12:37:57.335Z,17.84
2019-01-10T12:40:27.065Z,17.91
2019-01-10T12:42:56.809Z,18.02
2019-01-10T12:45:26.736Z,18.11
2019-01-10T12:47:56.558Z,18.17
2019-01-10T12:50:28.154Z,18.28
2019-01-10T12:52:58.270Z,18.35
2019-01-10T12:55:28.108Z,18.42
2019-01-10T12:57:57.968Z,18.49
2019-01-10T13:00:28.112Z,18.50
2019-01-10T13:02:58.036Z,18.55
2019-01-10T13:05:27.988Z,18.62
2019-01-10T13:08:03.443Z,18.73
2019-01-10T13:10:29.741Z,18.82
2019-01-10T13:12:59.756Z,18.95
2019-01-10T13:15:29.763Z,19.03
2019-01-10T13:17:59.778Z,19.08
2019-01-10T13:20:29.978Z,19.15
2019-01-10T13:23:00.129Z,19.19
2019-01-10T13:25:30.048Z,19.26
2019-01-10T13:27:59.855Z,19.32
2019-01-10T13:30:29.952Z,19.38
2019-01-10T13:32:59.764Z,19.41
2019-01-10T13:35:29.661Z,19.46
2019-01-10T13:37:59.755Z,19.57
2019-01-10T13:40:29.620Z,19.62
2019-01-10T13:42:59.519Z,19.65
2019-01-10T13:45:29.492Z,19.70
2019-01-10T13:47:59.372Z,19.73
2019-01-10T13:50:29.312Z,19.78
2019-01-10T13:52:59.318Z,19.84
2019-01-10T13:55:29.569Z,19.92
2019-01-10T13:57:59.589Z,19.97
2019-01-10T14:00:35.386Z,19.97
2019-01-10T14:03:01.498Z,19.96
2019-01-10T14:05:31.368Z,19.99
2019-01-10T14:08:01.330Z,20.01
2019-01-10T14:10:31.213Z,20.09
2019-01-10T14:13:00.953Z,20.08
2019-01-10T14:15:31.103Z,19.98
2019-01-10T14:18:00.774Z,19.99
2019-01-10T14:20:30.571Z,20.01
2019-01-10T14:23:01.088Z,20.05
2019-01-10T14:25:30.886Z,20.04
2019-01-10T14:28:00.807Z,20.03
2019-01-10T14:30:32.988Z,20.08
2019-01-10T14:33:03.651Z,20.11
2019-01-10T14:35:33.500Z,20.14
2019-01-10T14:38:03.519Z,20.21
2019-01-10T14:40:33.391Z,20.30
2019-01-10T14:43:03.207Z,20.34
2019-01-10T14:45:33.354Z,20.37
2019-01-10T14:48:03.354Z,20.40
2019-01-10T14:50:33.187Z,20.44
2019-01-10T14:53:03.184Z,20.43
2019-01-10T14:55:33.071Z,20.42
2019-01-10T14:58:02.742Z,20.43
2019-01-10T15:00:32.678Z,20.41
2019-01-10T15:03:02.695Z,20.40
2019-01-10T15:05:34.529Z,20.43
2019-01-10T15:08:04.215Z,20.42
2019-01-10T15:10:33.981Z,20.42
2019-01-10T15:13:03.938Z,20.36
2019-01-10T15:15:33.843Z,20.28
2019-01-10T15:18:03.082Z,20.22
2019-01-10T15:20:33.078Z,20.09
2019-01-10T15:23:02.718Z,20.14
2019-01-10T15:25:36.936Z,20.12
2019-01-10T15:28:07.717Z,20.15
2019-01-10T15:30:37.276Z,20.14
2019-01-10T15:33:06.465Z,20.13
2019-01-10T15:35:36.247Z,20.09
2019-01-10T15:38:05.334Z,20.06
2019-01-10T15:40:34.691Z,20.03
2019-01-10T15:43:04.343Z,20.01
2019-01-10T15:45:33.546Z,20.04
2019-01-10T15:48:02.592Z,19.98
2019-01-10T15:50:31.676Z,19.95
2019-01-10T15:53:00.873Z,19.91
2019-01-10T15:55:30.371Z,19.87
2019-01-10T15:58:00.121Z,19.84
2019-01-10T16:00:29.432Z,19.79
2019-01-10T16:02:58.569Z,19.74
2019-01-10T16:05:28.574Z,19.68
2019-01-10T16:08:02.762Z,19.63
2019-01-10T16:10:32.586Z,19.58
2019-01-10T16:13:01.983Z,19.52
2019-01-10T16:15:31.577Z,19.47
2019-01-10T16:18:01.108Z,19.45
2019-01-10T16:20:30.423Z,19.40
2019-01-10T16:23:02.004Z,19.29
2019-01-10T16:25:31.362Z,19.24
2019-01-10T16:28:00.674Z,19.17
2019-01-10T16:30:30.054Z,19.12
2019-01-10T16:32:59.769Z,19.02
2019-01-10T16:35:31.524Z,18.90
2019-01-10T16:38:00.793Z,18.75
2019-01-10T16:40:30.627Z,18.61
2019-01-10T16:43:02.618Z,18.51
2019-01-10T16:45:32.341Z,18.42
2019-01-10T16:48:01.637Z,18.31
2019-01-10T16:50:30.971Z,18.17
2019-01-10T16:53:00.488Z,18.02
2019-01-10T16:55:35.487Z,17.88
2019-01-10T16:58:05.805Z,17.75
2019-01-10T17:00:35.399Z,17.58
2019-01-10T17:03:04.625Z,17.47
2019-01-10T17:05:33.906Z,17.30
2019-01-10T17:08:03.369Z,17.21
2019-01-10T17:10:32.885Z,17.11
2019-01-10T17:13:02.342Z,17.02
2019-01-10T17:15:33.217Z,16.93
2019-01-10T17:18:04.346Z,16.84
2019-01-10T17:20:33.826Z,16.76
2019-01-10T17:23:03.717Z,16.66
2019-01-10T17:25:33.891Z,16.57
2019-01-10T17:28:03.361Z,16.46
2019-01-10T17:30:33.294Z,16.34
2019-01-10T17:33:03.041Z,16.24
2019-01-10T17:35:32.780Z,16.12
2019-01-10T17:38:02.303Z,16.00
2019-01-10T17:40:32.018Z,15.85
2019-01-10T17:43:01.714Z,15.68
2019-01-10T17:45:32.619Z,15.52
2019-01-10T17:48:02.266Z,15.41
2019-01-10T17:50:32.092Z,15.27
2019-01-10T17:53:01.892Z,15.12
2019-01-10T17:55:31.526Z,14.97
2019-01-10T17:58:00.773Z,14.86
2019-01-10T18:00:32.871Z,14.78
2019-01-10T18:03:02.930Z,14.68
2019-01-10T18:05:33.189Z,14.54
2019-01-10T18:08:02.757Z,14.36
2019-01-10T18:10:39.004Z,14.25
2019-01-10T18:13:09.053Z,14.15
2019-01-10T18:15:38.966Z,14.05
2019-01-10T18:18:09.024Z,13.97
2019-01-10T18:20:39.029Z,13.92
2019-01-10T18:23:08.925Z,13.87
2019-01-10T18:25:38.730Z,13.79
2019-01-10T18:28:08.869Z,13.73
2019-01-10T18:30:43.347Z,13.63
2019-01-10T18:33:10.642Z,13.54
2019-01-10T18:35:40.213Z,13.39
2019-01-10T18:38:11.707Z,13.24
2019-01-10T18:40:41.742Z,13.10
2019-01-10T18:43:11.681Z,12.98
2019-01-10T18:45:41.509Z,12.87
2019-01-10T18:48:11.498Z,12.73
2019-01-10T18:50:41.436Z,12.63
2019-01-10T18:53:11.296Z,12.53
2019-01-10T18:55:41.469Z,12.43
2019-01-10T18:58:11.374Z,12.32
2019-01-10T19:00:41.578Z,12.22
2019-01-10T19:03:11.801Z,12.09
2019-01-10T19:05:41.708Z,11.99
2019-01-10T19:08:11.979Z,11.89
2019-01-10T19:10:41.961Z,11.80
2019-01-10T19:13:11.956Z,11.71
2019-01-10T19:15:41.937Z,11.62
2019-01-10T19:18:11.690Z,11.55
2019-01-10T19:20:41.675Z,11.49
2019-01-10T19:23:11.663Z,11.42
2019-01-10T19:25:41.920Z,11.35
2019-01-10T19:28:12.175Z,11.28
2019-01-10T19:30:41.964Z,11.20
2019-01-10T19:33:13.717Z,11.13
2019-01-10T19:35:43.867Z,11.03
2019-01-10T19:38:13.854Z,10.96
2019-01-10T19:40:43.964Z,10.88
2019-01-10T19:43:13.758Z,10.80
2019-01-10T19:45:43.873Z,10.73
2019-01-10T19:48:13.888Z,10.66
2019-01-10T19:50:43.968Z,10.60
2019-01-10T19:53:14.233Z,10.55
2019-01-10T19:55:44.314Z,10.50
2019-01-10T19:58:14.224Z,10.45
2019-01-10T20:00:44.170Z,10.36
2019-01-10T20:03:14.045Z,10.28
2019-01-10T20:05:43.891Z,10.23
2019-01-10T20:08:13.664Z,10.17
2019-01-10T20:10:43.920Z,10.08
2019-01-10T20:13:13.967Z,10.00
2019-01-10T20:15:43.931Z,9.94
2019-01-10T20:18:16.319Z,9.89
2019-01-10T20:20:47.043Z,9.83
2019-01-10T20:23:16.968Z,9.76
2019-01-10T20:25:47.038Z,9.67
2019-01-10T20:28:17.063Z,9.57
2019-01-10T20:30:46.998Z,9.48
2019-01-10T20:33:17.302Z,9.38
2019-01-10T20:35:47.180Z,9.34
2019-01-10T20:38:17.490Z,9.32
2019-01-10T20:40:47.764Z,9.27
2019-01-10T20:43:17.023Z,9.22
2019-01-10T20:45:47.055Z,9.15
2019-01-10T20:48:22.401Z,9.09
2019-01-10T20:50:48.645Z,9.05
2019-01-10T20:53:18.543Z,8.99
2019-01-10T20:55:48.664Z,8.95
2019-01-10T20:58:18.622Z,8.91
2019-01-10T21:00:48.662Z,8.86
2019-01-10T21:03:18.769Z,8.84
2019-01-10T21:05:50.361Z,8.80
2019-01-10T21:08:20.322Z,8.74
2019-01-10T21:10:50.358Z,8.70
2019-01-10T21:13:20.112Z,8.68
2019-01-10T21:15:51.582Z,8.65
2019-01-10T21:18:21.626Z,8.62
2019-01-10T21:20:51.424Z,8.57
2019-01-10T21:23:22.931Z,8.49
2019-01-10T21:25:52.735Z,8.36
2019-01-10T21:28:24.452Z,8.25
2019-01-10T21:30:54.649Z,8.16
2019-01-10T21:33:24.634Z,8.13
2019-01-10T21:35:54.727Z,8.14
2019-01-10T21:38:24.528Z,8.11
2019-01-10T21:40:55.077Z,8.10
2019-01-10T21:43:25.298Z,8.06
2019-01-10T21:45:55.366Z,8.00
2019-01-10T21:48:28.156Z,7.94
2019-01-10T21:50:58.031Z,7.90
2019-01-10T21:53:27.910Z,7.86
2019-01-10T21:55:57.890Z,7.78
2019-01-10T21:58:28.125Z,7.60
2019-01-10T22:00:57.523Z,7.73
2019-01-10T22:03:27.156Z,7.70
2019-01-10T22:05:56.428Z,7.63
2019-01-10T22:08:38.056Z,7.51
2019-01-10T22:11:16.067Z,7.41
2019-01-10T22:13:58.649Z,7.33
2019-01-10T22:16:28.146Z,7.28
2019-01-10T22:18:57.816Z,7.25
2019-01-10T22:21:27.449Z,7.20
2019-01-10T22:23:57.181Z,7.14
2019-01-10T22:26:27.557Z,7.05
2019-01-10T22:28:57.738Z,6.98
2019-01-10T22:31:27.384Z,6.93
2019-01-10T22:33:57.249Z,6.87
2019-01-10T22:36:27.477Z,6.84
2019-01-10T22:38:57.540Z,6.77
2019-01-10T22:41:29.225Z,6.74
2019-01-10T22:44:02.144Z,6.67
2019-01-10T22:46:32.105Z,6.66
2019-01-10T22:49:02.161Z,6.69
2019-01-10T22:51:32.045Z,6.71
2019-01-10T22:54:02.002Z,6.68
2019-01-10T22:56:31.850Z,6.64
2019-01-10T22:59:01.774Z,6.66
2019-01-10T23:01:33.139Z,6.63
2019-01-10T23:04:03.063Z,6.61
2019-01-10T23:06:33.021Z,6.59
2019-01-10T23:09:02.483Z,6.56
2019-01-10T23:11:32.058Z,6.46
2019-01-10T23:14:02.000Z,6.36
2019-01-10T23:16:31.861Z,6.24
2019-01-10T23:19:02.050Z,6.17
2019-01-10T23:21:31.940Z,6.13
2019-01-10T23:24:02.257Z,6.09
2019-01-10T23:26:32.310Z,6.03
2019-01-10T23:29:02.107Z,6.05
2019-01-10T23:31:31.939Z,6.04
2019-01-10T23:34:08.421Z,6.05
2019-01-10T23:36:38.459Z,6.01
2019-01-10T23:39:16.670Z,6.01
2019-01-10T23:41:46.521Z,6.00
2019-01-10T23:44:16.723Z,6.02
2019-01-10T23:46:46.444Z,5.99
2019-01-10T23:49:31.706Z,5.91
2019-01-10T23:51:58.583Z,5.79
2019-01-10T23:54:28.080Z,5.69
2019-01-10T23:56:57.997Z,5.58
2019-01-10T23:59:28.064Z,5.51
